Sheridan, WY

2:15 AM MDT on September 19, 2014 (GMT -0600)
North Airport Area | Change Station
CLOSE
Current Station
Personal Weather Station
Location: Sheridan, WY
Elevation: 3917 ft
Nearby Weather Stations

Elev 3917 ft 44.78 °N, 106.97 °W | Updated 11 minutes ago

Partly Cloudy
Partly Cloudy
59.0 °F
Feels Like 59.0 °F
N
0.0
Wind Variable Wind from SSE

Today
High -- | Low -- °F
--% Chance of Precip.
Yesterday
High -- | Low -- °F
Precip. -- in
6:51 AM 7:10 PM
Waning Crescent, 21% visible
Pressure 29.74 in
Visibility 10.0 miles
Clouds Few 11000 ft
Dew Point 55 °F
Humidity 86%
Rainfall 0.00 in
Snow Depth Not available.
UV 0 out of 12
Pollen 6.00 out of 12
Air Quality Not available.
Flu Activity Not available.
METAR KSHR 190753Z AUTO 20005KT 10SM FEW110 14/13 A2985 RMK AO2 SLP071 T01440128

More Conditions Fewer Conditions

Pressure 29.74 in
Visibility 10.0 miles
Clouds Few 11000 ft
Dew Point 55 °F
Humidity 86%
Rainfall 0.00 in
Snow Depth Not available.
UV 0 out of 12
Pollen 6.00 out of 12
Air Quality Not available.
Flu Activity Not available.
METAR KSHR 190753Z AUTO 20005KT 10SM FEW110 14/13 A2985 RMK AO2 SLP071 T01440128

More Conditions Fewer Conditions

10-Day Weather Forecast

Almanac

Astronomy

Sep. 19, 2014 Rise Set
Actual Time 6:51 AM MDT 7:10 PM MDT
Civil Twilight 6:22 AM MDT 7:40 PM MDT
Nautical Twilight 5:47 AM MDT 8:14 PM MDT
Astronomical Twilight 5:12 AM MDT 8:49 PM MDT
Moon 2:30 AM MDT 4:48 PM MDT
Length of Visible Light 13h 17m
Length of Day
12h 19m
Tomorrow will be 3m 4s shorter.
Waning Crescent, 21% of the Moon is Illuminated
Today
Waning Crescent
Sep 24
New
Oct 1
First Quarter
Oct 8
Full
Oct 15
Last Quarter

Today's Extremes

State Highs State Lows

Community

WunderPhotos

Upload Photos

1,754,579 photos uploaded!

Nearby

Snow Depth

Station Depth Elevation
Phillips Bench 0 in 8200 ft
Gros Ventre Summit 1 in 8750 ft
Reno Hill 0 in 8500 ft
Gunsight Pass 0 in 9820 ft
Little Warm 1 in 9370 ft

Earthquake Activity

City Distance Mag. Time & Date
No recent earthquake activity has been reported nearby.
Minimum magnitude displayed is 2.5.

Coastal Water Temperatures

Place Temperature
No Stations Reporting

Nearby Weather Stations